Time;durP1;ratioP1;P1;durP2;ratioP2;P2;SDS_P1;SDS_P2;PMS_P1;PMS_P2;Temp;Humidity;BMP_temperature;BMP_pressure;BME280_temperature;BME280_humidity;BME280_pressure;Samples;Min_cycle;Max_cycle;Signal;HPM_P1;HPM_P2
2022/07/16 00:03:22;;;;;;;3.13;0.90;;;16.30;99.90;;;;;;5033622;28;20683;-89
2022/07/16 00:05:48;;;;;;;3.90;0.90;;;16.20;99.90;;;;;;5017928;28;20192;-88
2022/07/16 00:08:14;;;;;;;6.13;0.93;;;16.20;99.90;;;;;;5020509;28;20180;-89
2022/07/16 00:10:40;;;;;;;1.67;0.80;;;16.20;99.90;;;;;;5002665;28;20309;-88
2022/07/16 00:13:07;;;;;;;2.37;1.03;;;16.20;99.90;;;;;;5016736;28;20645;-89
2022/07/16 00:15:32;;;;;;;1.10;1.00;;;16.20;99.90;;;;;;5000369;28;20261;-89
2022/07/16 00:20:43;;;;;;;1.07;0.40;;;16.20;99.90;;;;;;5032586;28;20191;-89
2022/07/16 00:23:08;;;;;;;1.70;0.80;;;16.10;99.90;;;;;;5021803;28;20175;-90
2022/07/16 00:25:35;;;;;;;2.67;1.13;;;16.10;99.90;;;;;;5003304;28;20230;-89
2022/07/16 00:28:01;;;;;;;0.60;0.60;;;16.10;99.90;;;;;;5019030;28;20242;-89
2022/07/16 00:30:27;;;;;;;0.60;0.60;;;16.10;99.90;;;;;;4999780;28;20223;-89
2022/07/16 00:32:53;;;;;;;0.80;0.50;;;16.10;99.90;;;;;;5005448;28;20215;-89
2022/07/16 00:35:19;;;;;;;3.40;0.60;;;16.10;99.90;;;;;;4983560;28;20648;-90
2022/07/16 00:37:45;;;;;;;0.40;0.40;;;16.10;99.90;;;;;;4982864;28;20655;-89
2022/07/16 00:40:11;;;;;;;6.53;0.70;;;16.10;99.90;;;;;;4981834;28;20280;-89
2022/07/16 00:42:37;;;;;;;2.00;1.10;;;16.10;99.90;;;;;;4996986;28;20270;-90
2022/07/16 00:45:04;;;;;;;0.67;0.63;;;16.10;99.90;;;;;;4980781;28;20222;-89
2022/07/16 00:47:30;;;;;;;0.67;0.67;;;16.10;99.90;;;;;;5010323;28;20183;-89
2022/07/16 00:49:56;;;;;;;0.77;0.57;;;16.10;99.90;;;;;;5013829;28;20237;-90
2022/07/16 00:52:23;;;;;;;0.70;0.70;;;16.00;99.90;;;;;;4979144;28;20207;-89
2022/07/16 00:54:49;;;;;;;0.37;0.37;;;16.00;99.90;;;;;;4980291;28;20393;-88
2022/07/16 00:57:15;;;;;;;3.70;0.90;;;15.90;99.90;;;;;;4966906;28;20220;-90
2022/07/16 00:59:40;;;;;;;0.70;0.57;;;15.90;99.90;;;;;;4981690;28;20703;-89
2022/07/16 01:02:06;;;;;;;4.00;0.70;;;15.90;99.90;;;;;;4980648;28;20259;-89
2022/07/16 01:04:33;;;;;;;0.93;0.83;;;16.00;99.90;;;;;;4981206;28;20220;-89
2022/07/16 01:07:00;;;;;;;1.03;0.93;;;16.00;99.90;;;;;;5005477;28;20211;-90
2022/07/16 01:09:26;;;;;;;0.67;0.63;;;15.90;99.90;;;;;;4998231;28;20219;-89
2022/07/16 01:11:53;;;;;;;1.17;0.50;;;16.00;99.90;;;;;;4998209;28;20231;-88
2022/07/16 01:14:19;;;;;;;3.13;0.57;;;15.80;99.90;;;;;;4982546;28;20249;-89
2022/07/16 01:16:45;;;;;;;4.37;0.73;;;15.80;99.90;;;;;;4981640;28;20204;-89
2022/07/16 01:19:12;;;;;;;1.23;0.80;;;15.70;99.90;;;;;;4996446;28;20204;-88
2022/07/16 01:21:39;;;;;;;0.90;0.90;;;15.70;99.90;;;;;;4994319;28;20215;-89
2022/07/16 01:24:05;;;;;;;2.90;0.57;;;15.70;99.90;;;;;;5004182;28;20216;-89
2022/07/16 01:26:31;;;;;;;0.90;0.43;;;15.60;99.90;;;;;;4965262;28;20188;-89
2022/07/16 01:28:57;;;;;;;3.23;1.00;;;15.60;99.90;;;;;;5005900;28;20283;-89
2022/07/16 01:31:23;;;;;;;0.83;0.50;;;15.60;99.90;;;;;;4979709;28;20774;-90
2022/07/16 01:34:24;;;;;;;1.87;0.87;;;15.60;99.90;;;;;;4969370;28;20226;-88
2022/07/16 01:36:34;;;;;;;0.80;0.70;;;15.60;99.90;;;;;;5001900;28;20207;-89
2022/07/16 01:39:00;;;;;;;2.67;0.80;;;15.60;99.90;;;;;;5006829;28;20215;-88
2022/07/16 01:41:26;;;;;;;1.50;0.90;;;15.70;99.90;;;;;;4999536;28;20194;-88
2022/07/16 01:43:52;;;;;;;0.73;0.63;;;15.70;99.90;;;;;;4980438;28;20214;-90
2022/07/16 01:46:18;;;;;;;2.40;0.90;;;15.60;99.90;;;;;;4982137;28;20237;-89
2022/07/16 01:48:43;;;;;;;0.60;0.60;;;15.50;99.90;;;;;;4980375;28;20227;-89
2022/07/16 01:51:09;;;;;;;1.63;0.93;;;15.60;99.90;;;;;;5004670;28;20696;-88
2022/07/16 01:53:35;;;;;;;1.07;0.80;;;15.60;99.90;;;;;;4997163;28;20246;-89
2022/07/16 01:56:00;;;;;;;1.70;0.90;;;15.60;99.90;;;;;;4982134;28;20322;-89
2022/07/16 01:58:27;;;;;;;1.17;0.90;;;15.50;99.90;;;;;;5005810;28;20671;-89
2022/07/16 02:00:53;;;;;;;1.43;0.83;;;15.50;99.90;;;;;;5016295;28;20230;-90
2022/07/16 02:03:19;;;;;;;2.70;0.70;;;15.50;99.90;;;;;;4998858;28;20344;-90
2022/07/16 02:05:45;;;;;;;0.53;0.53;;;15.40;99.90;;;;;;5015068;28;20191;-90
2022/07/16 02:08:10;;;;;;;0.73;0.60;;;15.40;99.90;;;;;;5000472;28;20190;-90
2022/07/16 02:10:38;;;;;;;2.23;0.83;;;15.30;99.90;;;;;;5001326;28;20710;-88
2022/07/16 02:13:04;;;;;;;0.53;0.43;;;15.30;99.90;;;;;;5014579;28;20211;-90
2022/07/16 02:15:31;;;;;;;2.67;1.30;;;15.30;99.90;;;;;;5016375;28;20224;-90
2022/07/16 02:17:57;;;;;;;0.93;0.93;;;15.30;99.90;;;;;;5015750;28;20207;-88
2022/07/16 02:20:23;;;;;;;1.43;1.33;;;15.30;99.90;;;;;;4998831;28;20182;-89
2022/07/16 02:22:49;;;;;;;1.80;0.73;;;15.40;99.90;;;;;;5000104;28;20225;-89
2022/07/16 02:25:15;;;;;;;2.87;0.70;;;15.40;99.90;;;;;;5013832;28;20844;-88
2022/07/16 02:28:05;;;;;;;2.17;0.70;;;15.40;99.90;;;;;;5015267;28;20257;-89
2022/07/16 02:30:26;;;;;;;7.30;1.20;;;15.30;99.90;;;;;;5030570;28;20301;-89
2022/07/16 02:32:52;;;;;;;1.10;1.00;;;15.30;99.90;;;;;;5001395;28;20252;-89
2022/07/16 02:35:18;;;;;;;0.93;0.87;;;15.20;99.90;;;;;;5015622;28;20187;-89
2022/07/16 02:37:44;;;;;;;1.87;1.17;;;15.20;99.90;;;;;;5014278;28;20219;-87
2022/07/16 02:40:10;;;;;;;0.77;0.77;;;15.20;99.90;;;;;;5002908;28;20218;-88
2022/07/16 02:42:36;;;;;;;0.90;0.80;;;15.20;99.90;;;;;;5019704;28;20253;-89
2022/07/16 02:45:02;;;;;;;0.73;0.73;;;15.30;99.90;;;;;;5004324;28;20242;-89
2022/07/16 02:47:28;;;;;;;0.40;0.40;;;15.50;99.90;;;;;;5003260;28;20191;-89
2022/07/16 02:49:53;;;;;;;0.73;0.73;;;15.60;99.90;;;;;;5002877;28;20272;-87
2022/07/16 02:52:20;;;;;;;4.83;0.70;;;15.50;99.90;;;;;;5019333;28;20238;-88
2022/07/16 02:54:46;;;;;;;1.23;0.50;;;15.50;99.90;;;;;;5018673;28;20215;-88
2022/07/16 02:57:11;;;;;;;0.60;0.47;;;15.30;99.90;;;;;;5019358;28;20210;-89
2022/07/16 02:59:37;;;;;;;1.70;0.67;;;15.30;99.90;;;;;;5004854;28;20201;-88
2022/07/16 03:02:03;;;;;;;10.47;1.17;;;15.40;99.90;;;;;;5003997;28;20661;-89
2022/07/16 03:04:29;;;;;;;0.77;0.50;;;15.40;99.90;;;;;;5003289;28;20844;-88
2022/07/16 03:06:54;;;;;;;0.83;0.63;;;15.30;99.90;;;;;;5017853;28;20219;-90
2022/07/16 03:09:20;;;;;;;0.53;0.30;;;15.10;99.90;;;;;;5002096;28;20231;-87
2022/07/16 03:11:46;;;;;;;0.97;0.93;;;15.10;99.90;;;;;;5020669;28;20257;-89
2022/07/16 03:14:12;;;;;;;4.00;0.30;;;15.10;99.90;;;;;;5002603;28;20187;-89
2022/07/16 03:16:38;;;;;;;0.53;0.53;;;15.10;99.90;;;;;;5019326;28;20269;-89
2022/07/16 03:19:04;;;;;;;0.73;0.43;;;15.00;99.90;;;;;;5002355;28;20239;-90
2022/07/16 03:21:29;;;;;;;0.30;0.30;;;15.00;99.90;;;;;;5001798;28;20214;-89
2022/07/16 03:23:55;;;;;;;2.27;0.57;;;14.90;99.90;;;;;;5003350;28;20211;-90
2022/07/16 03:26:21;;;;;;;0.73;0.60;;;14.90;99.90;;;;;;5006296;28;20270;-89
2022/07/16 03:28:46;;;;;;;0.50;0.50;;;14.90;99.90;;;;;;5002929;28;20225;-88
2022/07/16 03:31:12;;;;;;;0.70;0.70;;;14.90;99.90;;;;;;5020212;28;20226;-90
2022/07/16 03:33:38;;;;;;;0.50;0.40;;;15.00;99.90;;;;;;5017628;28;20203;-90
2022/07/16 03:36:04;;;;;;;3.93;0.80;;;15.10;99.90;;;;;;5001079;28;20210;-89
2022/07/16 03:41:14;;;;;;;0.70;0.60;;;15.00;99.90;;;;;;5033326;28;20591;-89
2022/07/16 03:43:40;;;;;;;0.63;0.50;;;14.90;99.90;;;;;;5019519;28;20206;-89
2022/07/16 03:46:06;;;;;;;0.30;0.30;;;14.80;99.90;;;;;;5002706;28;20215;-89
2022/07/16 03:48:31;;;;;;;0.50;0.50;;;14.80;99.90;;;;;;5002775;28;20269;-88
2022/07/16 03:50:57;;;;;;;0.27;0.27;;;14.80;99.90;;;;;;4999915;28;20677;-88
2022/07/16 03:53:23;;;;;;;0.47;0.40;;;14.80;99.90;;;;;;5020240;28;20385;-90
2022/07/16 03:55:49;;;;;;;0.40;0.40;;;14.70;99.90;;;;;;5002915;28;20222;-89
2022/07/16 03:58:14;;;;;;;3.03;0.60;;;14.60;99.90;;;;;;5001839;28;20219;-89
2022/07/16 04:00:40;;;;;;;5.40;0.60;;;14.60;99.90;;;;;;5018576;28;20684;-89
2022/07/16 04:03:06;;;;;;;0.90;0.80;;;14.60;99.90;;;;;;5002181;28;20592;-88
2022/07/16 04:05:32;;;;;;;0.57;0.30;;;14.50;99.90;;;;;;5000314;28;20655;-89
2022/07/16 04:07:57;;;;;;;2.23;0.63;;;14.50;99.90;;;;;;5018583;28;20274;-88
2022/07/16 04:10:23;;;;;;;0.50;0.50;;;14.60;99.90;;;;;;5001432;28;20598;-89
2022/07/16 04:12:49;;;;;;;6.60;0.87;;;14.50;99.90;;;;;;4999246;28;20725;-88
2022/07/16 04:15:14;;;;;;;3.70;0.53;;;14.60;99.90;;;;;;5002034;28;20240;-88
2022/07/16 04:17:40;;;;;;;1.57;0.60;;;14.60;99.90;;;;;;5000948;28;20769;-87
2022/07/16 04:20:06;;;;;;;1.73;0.57;;;14.60;99.90;;;;;;5002100;28;20654;-87
2022/07/16 04:22:32;;;;;;;1.30;0.50;;;14.60;99.90;;;;;;5016549;28;20235;-88
2022/07/16 04:24:58;;;;;;;0.70;0.57;;;14.60;99.90;;;;;;5017735;28;20210;-88
2022/07/16 04:27:24;;;;;;;0.50;0.47;;;14.60;99.90;;;;;;5000652;28;20272;-90
2022/07/16 04:29:49;;;;;;;3.10;0.83;;;14.70;99.90;;;;;;5017665;28;20230;-89
2022/07/16 04:32:15;;;;;;;3.93;0.93;;;14.60;99.90;;;;;;5002134;28;20805;-89
2022/07/16 04:34:41;;;;;;;6.17;1.03;;;14.50;99.90;;;;;;5002365;28;20222;-89
2022/07/16 04:37:07;;;;;;;9.73;1.17;;;14.60;99.90;;;;;;5001508;28;20302;-89
2022/07/16 04:39:33;;;;;;;3.30;0.70;;;14.60;99.90;;;;;;5000595;28;20235;-88
2022/07/16 04:41:58;;;;;;;3.80;0.83;;;14.70;99.90;;;;;;5001305;28;20246;-89
2022/07/16 04:44:24;;;;;;;0.37;0.37;;;14.70;99.90;;;;;;5001372;28;20225;-88
2022/07/16 04:46:50;;;;;;;0.43;0.43;;;14.70;99.90;;;;;;5001840;28;20223;-89
2022/07/16 04:49:16;;;;;;;0.57;0.57;;;14.70;99.90;;;;;;5001681;28;20211;-89
2022/07/16 04:51:41;;;;;;;0.30;0.30;;;14.70;99.90;;;;;;5017181;28;20203;-89
2022/07/16 04:54:07;;;;;;;0.50;0.50;;;14.70;99.90;;;;;;5017215;28;20217;-88
2022/07/16 04:56:33;;;;;;;0.40;0.30;;;14.60;99.90;;;;;;5001472;28;20557;-89
2022/07/16 04:58:59;;;;;;;0.47;0.47;;;14.70;99.90;;;;;;5002569;28;20615;-90
2022/07/16 05:01:24;;;;;;;6.73;0.57;;;14.70;99.90;;;;;;5000603;28;20225;-89
2022/07/16 05:03:50;;;;;;;1.27;0.73;;;14.80;99.90;;;;;;5033283;28;20226;-88
2022/07/16 05:06:16;;;;;;;0.60;0.40;;;14.80;99.90;;;;;;5002340;28;20217;-88
2022/07/16 05:08:42;;;;;;;1.43;0.30;;;14.70;99.90;;;;;;5031378;28;20217;-88
2022/07/16 05:11:07;;;;;;;4.70;0.57;;;14.70;99.90;;;;;;5001122;28;20345;-88
2022/07/16 05:13:33;;;;;;;1.60;0.70;;;14.70;99.90;;;;;;4999445;28;20242;-88
2022/07/16 05:16:01;;;;;;;5.40;1.07;;;14.80;99.90;;;;;;4999118;28;20241;-89
2022/07/16 05:18:27;;;;;;;2.10;0.40;;;14.80;99.90;;;;;;5016007;28;20242;-90
2022/07/16 05:20:53;;;;;;;0.33;0.33;;;14.80;99.90;;;;;;4999883;28;20278;-89
2022/07/16 05:23:18;;;;;;;0.87;0.77;;;14.80;99.90;;;;;;5001664;28;20211;-89
2022/07/16 05:25:44;;;;;;;0.53;0.53;;;14.90;99.90;;;;;;4998988;28;20237;-89
2022/07/16 05:28:10;;;;;;;0.90;0.60;;;14.90;99.90;;;;;;5016269;28;20691;-89
2022/07/16 05:30:36;;;;;;;0.60;0.60;;;14.90;99.90;;;;;;5016531;28;20223;-89
2022/07/16 05:33:01;;;;;;;0.50;0.50;;;15.00;99.90;;;;;;4999413;28;20264;-88
2022/07/16 05:35:27;;;;;;;1.27;1.03;;;15.10;99.90;;;;;;5000807;28;20186;-89
2022/07/16 05:37:53;;;;;;;0.27;0.27;;;15.10;99.90;;;;;;4999893;28;20215;-89
2022/07/16 05:40:19;;;;;;;2.97;0.43;;;15.30;99.90;;;;;;5001892;28;20304;-89
2022/07/16 05:42:45;;;;;;;1.07;1.00;;;15.40;99.90;;;;;;5000559;28;20229;-89
2022/07/16 05:45:10;;;;;;;0.30;0.30;;;15.50;99.90;;;;;;5016820;28;20225;-88
2022/07/16 05:47:36;;;;;;;0.40;0.40;;;15.60;99.90;;;;;;4999604;28;20208;-88
2022/07/16 05:50:04;;;;;;;0.67;0.63;;;15.60;99.90;;;;;;5000819;28;20552;-90
2022/07/16 05:52:30;;;;;;;0.40;0.40;;;15.60;99.90;;;;;;5016637;28;20211;-88
2022/07/16 05:54:56;;;;;;;1.43;0.57;;;15.70;99.90;;;;;;5015279;28;20225;-89
2022/07/16 05:57:22;;;;;;;7.87;0.80;;;15.80;99.90;;;;;;5016204;28;20210;-88
2022/07/16 05:59:47;;;;;;;2.37;0.33;;;16.10;99.90;;;;;;5017239;28;20281;-88
2022/07/16 06:02:13;;;;;;;1.33;0.50;;;16.10;99.90;;;;;;5033503;28;20183;-90
2022/07/16 06:04:39;;;;;;;0.23;0.23;;;16.10;99.90;;;;;;5015725;28;20285;-87
2022/07/16 06:07:05;;;;;;;0.20;0.20;;;16.30;99.90;;;;;;4999104;28;20219;-88
2022/07/16 06:09:30;;;;;;;1.63;0.47;;;16.80;99.90;;;;;;5016659;28;20233;-87
2022/07/16 06:11:56;;;;;;;0.40;0.40;;;16.80;99.90;;;;;;4998840;28;20694;-86
2022/07/16 06:14:22;;;;;;;0.23;0.20;;;17.00;99.90;;;;;;5016169;28;20198;-87
2022/07/16 06:16:48;;;;;;;1.00;0.60;;;17.70;99.90;;;;;;5019872;28;20242;-89
2022/07/16 06:19:14;;;;;;;6.07;0.90;;;18.40;99.90;;;;;;5018382;28;20210;-90
2022/07/16 06:21:40;;;;;;;0.83;0.20;;;19.50;99.90;;;;;;5021620;28;20207;-86
2022/07/16 06:24:06;;;;;;;1.50;0.57;;;19.70;99.90;;;;;;5020859;28;20245;-86
2022/07/16 06:26:31;;;;;;;0.50;0.50;;;19.80;99.90;;;;;;5018556;28;20830;-89
2022/07/16 06:28:57;;;;;;;2.13;0.60;;;19.30;99.90;;;;;;5011982;28;20214;-88
2022/07/16 06:31:23;;;;;;;0.70;0.70;;;19.30;99.90;;;;;;5020278;28;20235;-90
2022/07/16 06:33:49;;;;;;;1.23;0.90;;;19.50;99.90;;;;;;5005289;28;20204;-89
2022/07/16 06:36:14;;;;;;;0.60;0.50;;;19.40;99.90;;;;;;4984974;28;20249;-89
2022/07/16 06:38:40;;;;;;;0.57;0.47;;;19.50;99.90;;;;;;5001307;28;20237;-90
2022/07/16 06:41:06;;;;;;;2.90;0.60;;;19.20;99.90;;;;;;4984948;28;20222;-89
2022/07/16 06:43:32;;;;;;;3.50;1.17;;;19.40;99.90;;;;;;5000679;28;20207;-90
2022/07/16 06:45:57;;;;;;;0.70;0.70;;;19.70;99.90;;;;;;5009413;28;21294;-89
2022/07/16 06:48:23;;;;;;;0.50;0.50;;;20.00;99.90;;;;;;5027066;28;20255;-90
2022/07/16 06:50:49;;;;;;;5.30;1.07;;;20.30;99.90;;;;;;5020395;28;20282;-88
2022/07/16 06:53:15;;;;;;;0.50;0.50;;;20.40;99.90;;;;;;5035366;28;20189;-90
2022/07/16 06:55:40;;;;;;;1.02;0.43;;;19.80;99.90;;;;;;5002212;28;20707;-88
2022/07/16 06:58:06;;;;;;;0.53;0.50;;;20.00;99.90;;;;;;5017615;28;20302;-89
2022/07/16 07:00:32;;;;;;;0.70;0.50;;;19.70;99.90;;;;;;5003451;28;20243;-92
2022/07/16 07:02:57;;;;;;;0.90;0.60;;;20.10;99.90;;;;;;5003701;28;20215;-90
2022/07/16 07:05:23;;;;;;;1.88;0.50;;;21.00;99.90;;;;;;5003055;28;20207;-90
2022/07/16 07:07:49;;;;;;;1.55;0.57;;;21.00;99.90;;;;;;5002724;28;20231;-89
2022/07/16 07:10:15;;;;;;;3.58;0.60;;;20.30;99.90;;;;;;5005087;28;20246;-90
2022/07/16 07:12:41;;;;;;;0.50;0.47;;;20.10;99.90;;;;;;5017053;28;20304;-89
2022/07/16 07:15:09;;;;;;;1.65;0.80;;;20.60;99.90;;;;;;5018379;28;20273;-89
2022/07/16 07:17:35;;;;;;;1.70;0.40;;;20.10;99.90;;;;;;5019560;28;20195;-91
2022/07/16 07:20:00;;;;;;;2.27;0.97;;;19.40;99.90;;;;;;5019626;28;20182;-89
2022/07/16 07:22:28;;;;;;;1.10;0.80;;;18.00;99.90;;;;;;5002372;28;20220;-89
2022/07/16 07:24:53;;;;;;;1.83;0.90;;;17.60;99.90;;;;;;5019457;28;20699;-89
2022/07/16 07:27:19;;;;;;;4.50;1.17;;;17.50;99.90;;;;;;5019574;28;20222;-89
2022/07/16 07:29:45;;;;;;;0.80;0.53;;;17.40;99.90;;;;;;5000902;28;20298;-87
2022/07/16 07:32:11;;;;;;;1.53;0.50;;;17.30;99.90;;;;;;5019530;28;20176;-89
2022/07/16 07:34:37;;;;;;;2.37;0.70;;;17.30;99.90;;;;;;5018808;28;20215;-87
2022/07/16 07:37:03;;;;;;;1.60;0.50;;;17.30;99.90;;;;;;5003206;28;20272;-87
2022/07/16 07:39:28;;;;;;;0.40;0.40;;;17.40;99.90;;;;;;5017163;28;20233;-87
2022/07/16 07:41:54;;;;;;;4.00;0.87;;;17.50;99.90;;;;;;5019023;28;20215;-87
2022/07/16 07:44:20;;;;;;;0.30;0.30;;;17.70;99.90;;;;;;5017922;28;20607;-86
2022/07/16 07:46:46;;;;;;;1.57;0.43;;;19.20;99.90;;;;;;5003873;28;20309;-87
2022/07/16 07:49:11;;;;;;;0.63;0.53;;;20.50;99.90;;;;;;5000842;28;20233;-87
2022/07/16 07:51:37;;;;;;;0.40;0.40;;;20.70;99.90;;;;;;5001126;28;20628;-89
2022/07/16 07:54:03;;;;;;;2.53;0.60;;;20.20;99.90;;;;;;5020694;28;20233;-89
2022/07/16 07:56:29;;;;;;;1.57;0.83;;;20.60;99.90;;;;;;5019772;28;20282;-89
2022/07/16 07:58:54;;;;;;;0.93;0.60;;;19.50;99.90;;;;;;5016538;28;20242;-89
2022/07/16 08:01:20;;;;;;;1.27;0.77;;;19.90;99.90;;;;;;4984702;28;20258;-87
2022/07/16 08:03:46;;;;;;;0.93;0.40;;;20.30;99.90;;;;;;5004484;28;20215;-88
2022/07/16 08:06:11;;;;;;;2.25;0.70;;;20.70;99.90;;;;;;5002721;28;20218;-88
2022/07/16 08:08:37;;;;;;;3.40;0.55;;;20.50;99.90;;;;;;4984610;28;20737;-88
2022/07/16 08:11:03;;;;;;;1.17;0.85;;;21.30;99.90;;;;;;4984170;28;20231;-88
2022/07/16 08:13:29;;;;;;;1.85;0.60;;;21.00;99.90;;;;;;5009916;28;20227;-88
2022/07/16 08:15:54;;;;;;;0.50;0.50;;;19.80;99.90;;;;;;5002657;28;20901;-88
2022/07/16 08:18:20;;;;;;;1.13;0.73;;;19.90;99.90;;;;;;4987847;28;20289;-88
2022/07/16 08:20:46;;;;;;;0.50;0.50;;;20.10;99.90;;;;;;4983887;28;20199;-88
2022/07/16 08:23:12;;;;;;;4.73;0.73;;;20.30;99.90;;;;;;4983854;28;20186;-87
2022/07/16 08:25:46;;;;;;;1.17;0.70;;;19.40;99.90;;;;;;5000740;28;20218;-88
2022/07/16 08:28:14;;;;;;;5.17;0.83;;;18.80;99.90;;;;;;5003324;28;20222;-89
2022/07/16 08:30:41;;;;;;;0.70;0.70;;;18.60;99.90;;;;;;5018718;28;20215;-87
2022/07/16 08:33:07;;;;;;;2.27;0.50;;;18.30;99.90;;;;;;5018105;28;20710;-87
2022/07/16 08:35:33;;;;;;;2.40;0.80;;;18.50;99.90;;;;;;5002515;28;20198;-88
2022/07/16 08:37:59;;;;;;;4.67;0.63;;;18.40;99.90;;;;;;5003074;28;20333;-87
2022/07/16 08:40:24;;;;;;;0.50;0.50;;;18.40;99.90;;;;;;5017425;28;20235;-88
2022/07/16 08:42:51;;;;;;;4.73;0.73;;;18.70;99.90;;;;;;5002117;28;20229;-88
2022/07/16 08:45:21;;;;;;;2.87;0.70;;;19.80;99.90;;;;;;5000208;28;20272;-88
2022/07/16 08:47:46;;;;;;;2.47;0.73;;;20.30;99.90;;;;;;5018827;28;20187;-88
2022/07/16 08:50:14;;;;;;;2.63;0.60;;;19.70;99.90;;;;;;5018202;28;20218;-87
2022/07/16 08:52:48;;;;;;;5.63;1.30;;;19.10;99.90;;;;;;5019704;28;20217;-88
2022/07/16 08:55:14;;;;;;;3.90;1.00;;;18.60;99.90;;;;;;5017416;28;20220;-89
2022/07/16 08:57:40;;;;;;;1.43;0.73;;;18.50;99.90;;;;;;5000464;28;20214;-88
2022/07/16 09:00:10;;;;;;;5.10;1.10;;;18.40;99.90;;;;;;5016808;28;20245;-88
2022/07/16 09:02:36;;;;;;;1.07;0.50;;;19.00;99.90;;;;;;5001143;28;20631;-88
2022/07/16 09:05:03;;;;;;;3.13;0.80;;;18.80;99.90;;;;;;5015118;28;20274;-88
2022/07/16 09:07:29;;;;;;;1.27;0.63;;;18.20;99.90;;;;;;5018174;28;20253;-88
2022/07/16 09:09:55;;;;;;;3.90;0.90;;;18.60;99.90;;;;;;5033096;28;20250;-87
2022/07/16 09:12:38;;;;;;;2.53;0.60;;;19.80;99.90;;;;;;4999310;28;20835;-88
2022/07/16 09:15:25;;;;;;;0.93;0.67;;;19.60;99.90;;;;;;5018206;28;20246;-89
2022/07/16 09:18:13;;;;;;;2.00;0.50;;;19.80;99.90;;;;;;5017641;28;20223;-89
2022/07/16 09:20:51;;;;;;;0.70;0.70;;;20.50;99.90;;;;;;5025282;28;20186;-86
2022/07/16 09:23:23;;;;;;;2.40;1.20;;;20.50;99.90;;;;;;5017608;28;20639;-87
2022/07/16 09:25:53;;;;;;;1.23;0.57;;;19.70;99.90;;;;;;5019545;28;20222;-85
2022/07/16 09:28:20;;;;;;;0.77;0.50;;;20.20;99.90;;;;;;5001556;28;20258;-87
2022/07/16 09:30:46;;;;;;;2.33;0.67;;;20.20;99.90;;;;;;5018782;28;20319;-88
2022/07/16 09:33:18;;;;;;;0.50;0.50;;;19.20;99.90;;;;;;5017503;28;20694;-87
2022/07/16 09:35:45;;;;;;;1.33;0.50;;;18.70;99.90;;;;;;5017888;28;20194;-88
2022/07/16 09:38:11;;;;;;;3.23;0.53;;;19.00;99.90;;;;;;5024529;28;20179;-88
2022/07/16 09:40:42;;;;;;;0.57;0.43;;;19.20;99.90;;;;;;5018367;28;20686;-87
2022/07/16 09:43:14;;;;;;;3.83;0.87;;;20.00;99.90;;;;;;5019044;28;20211;-90
2022/07/16 09:45:41;;;;;;;2.40;0.60;;;19.00;99.90;;;;;;5033292;28;20243;-88
2022/07/16 09:48:30;;;;;;;0.67;0.40;;;19.30;99.90;;;;;;5016058;28;20211;-89
2022/07/16 09:50:57;;;;;;;0.60;0.40;;;19.70;99.90;;;;;;5018676;28;20222;-87
2022/07/16 09:53:27;;;;;;;0.43;0.43;;;20.40;99.90;;;;;;5004934;28;20245;-88
2022/07/16 09:56:05;;;;;;;0.63;0.50;;;20.70;99.90;;;;;;5016630;28;20219;-87
2022/07/16 09:58:32;;;;;;;0.73;0.63;;;20.90;99.90;;;;;;5016982;28;20722;-86
2022/07/16 10:00:59;;;;;;;1.90;0.57;;;20.50;99.90;;;;;;4999343;28;20574;-87
2022/07/16 10:03:25;;;;;;;0.80;0.40;;;20.80;99.90;;;;;;5016093;28;20245;-87
2022/07/16 10:05:51;;;;;;;1.60;0.43;;;20.40;99.90;;;;;;5016183;28;20649;-89
2022/07/16 10:08:17;;;;;;;0.40;0.40;;;20.60;99.90;;;;;;5001976;28;20202;-89
2022/07/16 10:10:44;;;;;;;1.10;0.53;;;20.90;99.90;;;;;;4982327;28;20280;-89
2022/07/16 10:13:10;;;;;;;2.23;0.63;;;20.80;99.90;;;;;;5025643;28;20238;-90
2022/07/16 10:15:37;;;;;;;0.40;0.40;;;20.60;99.90;;;;;;5017912;28;20210;-89
2022/07/16 10:18:03;;;;;;;1.70;0.50;;;20.40;99.90;;;;;;5015809;28;20206;-90
2022/07/16 10:20:35;;;;;;;3.47;0.65;;;20.70;99.90;;;;;;5015422;28;20186;-91
2022/07/16 10:23:05;;;;;;;2.13;0.70;;;20.70;99.90;;;;;;5017765;28;20210;-88
2022/07/16 10:25:32;;;;;;;0.70;0.68;;;21.30;99.90;;;;;;5023425;28;20227;-89
2022/07/16 10:27:58;;;;;;;1.58;0.47;;;21.10;99.90;;;;;;5017842;28;20317;-87
2022/07/16 10:30:27;;;;;;;3.83;0.80;;;21.20;99.90;;;;;;5000325;28;20317;-85
2022/07/16 10:33:09;;;;;;;1.20;0.45;;;20.40;99.90;;;;;;5015238;28;20685;-87
2022/07/16 10:36:03;;;;;;;0.47;0.47;;;20.50;99.90;;;;;;5024833;28;20230;-88
2022/07/16 10:38:29;;;;;;;1.55;0.63;;;20.90;99.90;;;;;;5001994;28;20179;-91
2022/07/16 10:41:09;;;;;;;1.13;0.63;;;19.70;99.90;;;;;;5000343;28;20219;-91
2022/07/16 10:43:36;;;;;;;0.63;0.50;;;19.90;99.90;;;;;;5032151;28;20214;-86
2022/07/16 10:46:07;;;;;;;1.60;0.80;;;19.70;99.90;;;;;;4999062;28;20208;-88
2022/07/16 10:48:36;;;;;;;2.17;0.93;;;19.90;99.90;;;;;;5015969;28;20234;-88
2022/07/16 10:51:22;;;;;;;2.23;0.63;;;20.40;99.90;;;;;;5016356;28;20215;-87
2022/07/16 10:54:02;;;;;;;1.13;0.67;;;20.50;99.90;;;;;;5000050;28;20636;-88
2022/07/16 10:56:36;;;;;;;0.90;0.70;;;19.90;99.90;;;;;;5033926;28;20190;-89
2022/07/16 10:59:07;;;;;;;1.70;0.97;;;19.40;99.90;;;;;;5001041;28;20297;-89
2022/07/16 11:01:36;;;;;;;2.03;0.60;;;19.40;99.90;;;;;;5018625;28;20564;-89
2022/07/16 11:04:03;;;;;;;3.50;0.67;;;20.20;99.90;;;;;;5034242;28;20214;-89
2022/07/16 11:06:29;;;;;;;2.00;0.50;;;20.40;99.90;;;;;;5035156;28;20229;-89
2022/07/16 11:09:00;;;;;;;1.97;0.90;;;20.50;99.90;;;;;;5019059;28;20775;-89
2022/07/16 11:11:37;;;;;;;3.83;0.90;;;20.20;99.90;;;;;;5035782;28;20265;-89
2022/07/16 11:14:04;;;;;;;0.60;0.50;;;19.90;99.90;;;;;;5019891;28;20210;-88
2022/07/16 11:16:30;;;;;;;0.93;0.80;;;19.20;99.90;;;;;;5018215;28;20217;-88
2022/07/16 11:19:00;;;;;;;0.90;0.63;;;19.80;99.90;;;;;;5020443;28;20215;-88
2022/07/16 11:21:26;;;;;;;2.43;0.57;;;20.50;99.90;;;;;;5034233;28;20234;-88
2022/07/16 11:23:55;;;;;;;1.10;0.70;;;20.30;99.90;;;;;;5035768;28;20215;-89
2022/07/16 11:26:21;;;;;;;1.80;0.53;;;19.80;99.90;;;;;;5018622;28;20197;-89
2022/07/16 11:28:55;;;;;;;1.00;0.60;;;20.10;99.90;;;;;;5017695;28;20218;-86
2022/07/16 11:31:32;;;;;;;1.60;0.67;;;20.30;99.90;;;;;;5036664;28;20226;-88
2022/07/16 11:34:06;;;;;;;3.33;0.97;;;20.40;99.90;;;;;;5036584;28;20211;-87
2022/07/16 11:36:37;;;;;;;1.43;0.73;;;20.50;99.90;;;;;;5033277;28;20683;-88
2022/07/16 11:39:11;;;;;;;0.67;0.50;;;20.90;99.90;;;;;;5035627;28;20698;-88
2022/07/16 11:41:41;;;;;;;0.97;0.70;;;20.00;99.90;;;;;;5026573;28;20540;-88
2022/07/16 11:44:29;;;;;;;0.50;0.50;;;19.80;99.90;;;;;;5018012;28;20174;-89
2022/07/16 11:47:03;;;;;;;0.60;0.50;;;19.80;99.90;;;;;;5020525;28;20234;-88
2022/07/16 11:49:37;;;;;;;1.13;0.87;;;19.70;99.90;;;;;;5017579;28;20305;-89
2022/07/16 11:52:10;;;;;;;3.40;0.70;;;19.80;99.90;;;;;;5007783;28;20222;-88
2022/07/16 11:54:41;;;;;;;2.03;0.60;;;20.20;99.90;;;;;;5003802;28;20210;-89
2022/07/16 11:57:10;;;;;;;1.20;0.40;;;20.30;99.90;;;;;;5001792;28;20215;-89
2022/07/16 11:59:47;;;;;;;1.70;0.60;;;20.10;99.90;;;;;;5005987;28;20195;-88
2022/07/16 12:02:14;;;;;;;1.50;0.50;;;20.20;99.90;;;;;;5006751;28;20183;-89
2022/07/16 12:04:42;;;;;;;0.40;0.40;;;19.80;99.90;;;;;;4997136;28;20273;-88
2022/07/16 12:07:30;;;;;;;0.93;0.40;;;20.00;99.90;;;;;;5017039;28;20228;-88
2022/07/16 12:10:01;;;;;;;0.70;0.70;;;20.00;99.90;;;;;;4996600;28;20232;-88
2022/07/16 12:12:29;;;;;;;2.20;0.90;;;19.70;99.90;;;;;;4996665;28;20216;-88
2022/07/16 12:14:58;;;;;;;1.30;0.53;;;20.30;99.90;;;;;;4997906;28;20203;-89
2022/07/16 12:17:36;;;;;;;1.83;0.70;;;20.40;99.90;;;;;;4998609;28;20551;-88
2022/07/16 12:20:15;;;;;;;1.83;0.70;;;20.30;99.90;;;;;;5000870;28;20207;-89
2022/07/16 12:22:45;;;;;;;1.33;0.53;;;20.30;99.90;;;;;;4998275;28;20614;-89
2022/07/16 12:25:28;;;;;;;10.33;0.80;;;20.40;99.90;;;;;;5013752;28;20255;-89
2022/07/16 12:28:08;;;;;;;0.43;0.43;;;19.90;99.90;;;;;;5015747;28;20244;-90
2022/07/16 12:31:01;;;;;;;2.17;0.77;;;20.10;99.90;;;;;;5000138;28;20669;-89
2022/07/16 12:33:28;;;;;;;0.60;0.60;;;20.10;99.90;;;;;;4997235;28;20242;-89
2022/07/16 12:35:57;;;;;;;1.03;0.53;;;20.20;99.90;;;;;;5016838;28;20290;-90
2022/07/16 12:39:02;;;;;;;2.50;0.70;;;20.00;99.90;;;;;;5014995;28;20632;-89
2022/07/16 12:41:29;;;;;;;1.97;0.70;;;20.10;99.90;;;;;;5016699;28;20573;-91
2022/07/16 12:44:04;;;;;;;3.03;0.80;;;20.20;99.90;;;;;;5026745;28;20210;-91
2022/07/16 12:46:51;;;;;;;1.43;0.67;;;20.10;99.90;;;;;;5015693;28;20226;-89
2022/07/16 12:49:22;;;;;;;0.47;0.47;;;20.40;99.90;;;;;;5000816;28;20220;-89
2022/07/16 12:51:51;;;;;;;1.57;0.70;;;20.50;99.90;;;;;;4996172;28;20226;-90
2022/07/16 12:54:18;;;;;;;0.53;0.53;;;20.30;99.90;;;;;;4998773;28;20216;-88
2022/07/16 12:59:31;;;;;;;2.87;0.93;;;20.20;99.90;;;;;;4999951;28;20180;-89
2022/07/16 13:01:57;;;;;;;1.70;0.70;;;20.00;99.90;;;;;;5007433;28;20222;-90